sensor_id;sensor_type;location;lat;lon;timestamp;pressure;altitude;pressure_sealevel;temperature
65569;BMP180;52211;50.154;8.682;2023-09-18T00:01:53;99373.00;;;26.00
65569;BMP180;52211;50.154;8.682;2023-09-18T00:04:22;99378.00;;;26.00
65569;BMP180;52211;50.154;8.682;2023-09-18T00:06:53;99378.00;;;26.00
65569;BMP180;52211;50.154;8.682;2023-09-18T00:09:21;99373.00;;;25.90
65569;BMP180;52211;50.154;8.682;2023-09-18T00:11:53;99377.00;;;25.90
65569;BMP180;52211;50.154;8.682;2023-09-18T00:14:22;99372.00;;;25.90
65569;BMP180;52211;50.154;8.682;2023-09-18T00:16:54;99364.00;;;25.90
65569;BMP180;52211;50.154;8.682;2023-09-18T00:19:25;99357.00;;;25.90
65569;BMP180;52211;50.154;8.682;2023-09-18T00:21:55;99355.00;;;25.90
65569;BMP180;52211;50.154;8.682;2023-09-18T00:24:23;99359.00;;;25.90
65569;BMP180;52211;50.154;8.682;2023-09-18T00:26:51;99350.00;;;25.90
65569;BMP180;52211;50.154;8.682;2023-09-18T00:29:22;99343.00;;;25.80
65569;BMP180;52211;50.154;8.682;2023-09-18T00:31:49;99339.00;;;25.80
65569;BMP180;52211;50.154;8.682;2023-09-18T00:34:16;99344.00;;;25.80
65569;BMP180;52211;50.154;8.682;2023-09-18T00:36:42;99351.00;;;25.80
65569;BMP180;52211;50.154;8.682;2023-09-18T00:39:09;99346.00;;;25.80
65569;BMP180;52211;50.154;8.682;2023-09-18T00:41:37;99343.00;;;25.80
65569;BMP180;52211;50.154;8.682;2023-09-18T00:44:07;99335.00;;;25.70
65569;BMP180;52211;50.154;8.682;2023-09-18T00:46:39;99324.00;;;25.70
65569;BMP180;52211;50.154;8.682;2023-09-18T00:49:10;99319.00;;;25.70
65569;BMP180;52211;50.154;8.682;2023-09-18T00:51:38;99300.00;;;25.70
65569;BMP180;52211;50.154;8.682;2023-09-18T00:54:08;99314.00;;;25.70
65569;BMP180;52211;50.154;8.682;2023-09-18T00:56:41;99308.00;;;25.70
65569;BMP180;52211;50.154;8.682;2023-09-18T00:59:09;99306.00;;;25.60
65569;BMP180;52211;50.154;8.682;2023-09-18T01:01:42;99304.00;;;25.60
65569;BMP180;52211;50.154;8.682;2023-09-18T01:04:09;99314.00;;;25.60
65569;BMP180;52211;50.154;8.682;2023-09-18T01:06:39;99307.00;;;25.50
65569;BMP180;52211;50.154;8.682;2023-09-18T01:09:09;99294.00;;;25.50
65569;BMP180;52211;50.154;8.682;2023-09-18T01:11:49;99306.00;;;25.50
65569;BMP180;52211;50.154;8.682;2023-09-18T01:17:05;99277.00;;;25.40
65569;BMP180;52211;50.154;8.682;2023-09-18T01:19:46;99277.00;;;25.40
65569;BMP180;52211;50.154;8.682;2023-09-18T01:22:18;99270.00;;;25.40
65569;BMP180;52211;50.154;8.682;2023-09-18T01:24:47;99275.00;;;25.50
65569;BMP180;52211;50.154;8.682;2023-09-18T01:27:16;99277.00;;;25.40
65569;BMP180;52211;50.154;8.682;2023-09-18T01:29:47;99277.00;;;25.40
65569;BMP180;52211;50.154;8.682;2023-09-18T01:32:15;99278.00;;;25.40
65569;BMP180;52211;50.154;8.682;2023-09-18T01:34:53;99273.00;;;25.40
65569;BMP180;52211;50.154;8.682;2023-09-18T01:37:27;99272.00;;;25.40
65569;BMP180;52211;50.154;8.682;2023-09-18T01:39:58;99267.00;;;25.40
65569;BMP180;52211;50.154;8.682;2023-09-18T01:42:27;99273.00;;;25.40
65569;BMP180;52211;50.154;8.682;2023-09-18T01:44:57;99276.00;;;25.40
65569;BMP180;52211;50.154;8.682;2023-09-18T01:47:26;99271.00;;;25.40
65569;BMP180;52211;50.154;8.682;2023-09-18T01:49:56;99261.00;;;25.40
65569;BMP180;52211;50.154;8.682;2023-09-18T01:52:25;99256.00;;;25.40
65569;BMP180;52211;50.154;8.682;2023-09-18T01:54:54;99261.00;;;25.30
65569;BMP180;52211;50.154;8.682;2023-09-18T01:57:23;99259.00;;;25.30
65569;BMP180;52211;50.154;8.682;2023-09-18T01:59:52;99253.00;;;25.40
65569;BMP180;52211;50.154;8.682;2023-09-18T02:02:19;99259.00;;;25.40
65569;BMP180;52211;50.154;8.682;2023-09-18T02:04:59;99256.00;;;25.40
65569;BMP180;52211;50.154;8.682;2023-09-18T02:07:34;99260.00;;;25.40
65569;BMP180;52211;50.154;8.682;2023-09-18T02:10:06;99253.00;;;25.40
65569;BMP180;52211;50.154;8.682;2023-09-18T02:12:38;99266.00;;;25.40
65569;BMP180;52211;50.154;8.682;2023-09-18T02:15:08;99281.00;;;25.40
65569;BMP180;52211;50.154;8.682;2023-09-18T02:17:37;99296.00;;;25.40
65569;BMP180;52211;50.154;8.682;2023-09-18T02:20:05;99309.00;;;25.40
65569;BMP180;52211;50.154;8.682;2023-09-18T02:22:38;99338.00;;;25.30
65569;BMP180;52211;50.154;8.682;2023-09-18T02:25:08;99359.00;;;25.30
65569;BMP180;52211;50.154;8.682;2023-09-18T02:27:35;99399.00;;;25.30
65569;BMP180;52211;50.154;8.682;2023-09-18T02:30:03;99394.00;;;25.30
65569;BMP180;52211;50.154;8.682;2023-09-18T02:32:32;99382.00;;;25.30
65569;BMP180;52211;50.154;8.682;2023-09-18T02:35:08;99384.00;;;25.30
65569;BMP180;52211;50.154;8.682;2023-09-18T02:37:38;99367.00;;;25.30
65569;BMP180;52211;50.154;8.682;2023-09-18T02:40:07;99350.00;;;25.30
65569;BMP180;52211;50.154;8.682;2023-09-18T02:42:40;99341.00;;;25.30
65569;BMP180;52211;50.154;8.682;2023-09-18T02:45:07;99337.00;;;25.30
65569;BMP180;52211;50.154;8.682;2023-09-18T02:47:39;99325.00;;;25.30
65569;BMP180;52211;50.154;8.682;2023-09-18T02:50:08;99322.00;;;25.30
65569;BMP180;52211;50.154;8.682;2023-09-18T02:52:38;99337.00;;;25.30
65569;BMP180;52211;50.154;8.682;2023-09-18T02:55:07;99330.00;;;25.30
65569;BMP180;52211;50.154;8.682;2023-09-18T02:57:39;99315.00;;;25.30
65569;BMP180;52211;50.154;8.682;2023-09-18T03:00:06;99292.00;;;25.30
65569;BMP180;52211;50.154;8.682;2023-09-18T03:02:36;99307.00;;;25.30
65569;BMP180;52211;50.154;8.682;2023-09-18T03:05:03;99305.00;;;25.30
65569;BMP180;52211;50.154;8.682;2023-09-18T03:07:31;99290.00;;;25.30
65569;BMP180;52211;50.154;8.682;2023-09-18T03:10:00;99291.00;;;25.30
65569;BMP180;52211;50.154;8.682;2023-09-18T03:12:27;99279.00;;;25.40
65569;BMP180;52211;50.154;8.682;2023-09-18T03:14:57;99273.00;;;25.30
65569;BMP180;52211;50.154;8.682;2023-09-18T03:17:24;99259.00;;;25.40
65569;BMP180;52211;50.154;8.682;2023-09-18T03:19:51;99261.00;;;25.30
65569;BMP180;52211;50.154;8.682;2023-09-18T03:22:23;99246.00;;;25.40
65569;BMP180;52211;50.154;8.682;2023-09-18T03:24:54;99232.00;;;25.30
65569;BMP180;52211;50.154;8.682;2023-09-18T03:27:25;99235.00;;;25.30
65569;BMP180;52211;50.154;8.682;2023-09-18T03:30:03;99214.00;;;25.30
65569;BMP180;52211;50.154;8.682;2023-09-18T03:32:31;99217.00;;;25.30
65569;BMP180;52211;50.154;8.682;2023-09-18T03:35:01;99221.00;;;25.30
65569;BMP180;52211;50.154;8.682;2023-09-18T03:37:33;99219.00;;;25.30
65569;BMP180;52211;50.154;8.682;2023-09-18T03:40:03;99225.00;;;25.30
65569;BMP180;52211;50.154;8.682;2023-09-18T03:42:30;99215.00;;;25.30
65569;BMP180;52211;50.154;8.682;2023-09-18T03:44:57;99231.00;;;25.30
65569;BMP180;52211;50.154;8.682;2023-09-18T03:47:34;99242.00;;;25.30
65569;BMP180;52211;50.154;8.682;2023-09-18T03:50:08;99258.00;;;25.30
65569;BMP180;52211;50.154;8.682;2023-09-18T03:52:39;99247.00;;;25.30
65569;BMP180;52211;50.154;8.682;2023-09-18T03:55:10;99249.00;;;25.30
65569;BMP180;52211;50.154;8.682;2023-09-18T03:57:39;99259.00;;;25.30
65569;BMP180;52211;50.154;8.682;2023-09-18T04:00:07;99259.00;;;25.30
65569;BMP180;52211;50.154;8.682;2023-09-18T04:02:37;99243.00;;;25.30
65569;BMP180;52211;50.154;8.682;2023-09-18T04:05:07;99250.00;;;25.30
65569;BMP180;52211;50.154;8.682;2023-09-18T04:07:34;99256.00;;;25.30
65569;BMP180;52211;50.154;8.682;2023-09-18T04:10:03;99261.00;;;25.30
65569;BMP180;52211;50.154;8.682;2023-09-18T04:12:37;99251.00;;;25.30
65569;BMP180;52211;50.154;8.682;2023-09-18T04:15:07;99249.00;;;25.20
65569;BMP180;52211;50.154;8.682;2023-09-18T04:17:38;99237.00;;;25.20
65569;BMP180;52211;50.154;8.682;2023-09-18T04:20:08;99238.00;;;25.20
65569;BMP180;52211;50.154;8.682;2023-09-18T04:22:41;99233.00;;;25.20
65569;BMP180;52211;50.154;8.682;2023-09-18T04:25:09;99236.00;;;25.20
65569;BMP180;52211;50.154;8.682;2023-09-18T04:27:35;99239.00;;;25.20
65569;BMP180;52211;50.154;8.682;2023-09-18T04:30:03;99242.00;;;25.20
65569;BMP180;52211;50.154;8.682;2023-09-18T04:32:32;99259.00;;;25.10
65569;BMP180;52211;50.154;8.682;2023-09-18T04:35:01;99256.00;;;25.20
65569;BMP180;52211;50.154;8.682;2023-09-18T04:37:37;99263.00;;;25.10
65569;BMP180;52211;50.154;8.682;2023-09-18T04:40:10;99262.00;;;25.10
65569;BMP180;52211;50.154;8.682;2023-09-18T04:42:39;99250.00;;;25.10
65569;BMP180;52211;50.154;8.682;2023-09-18T04:45:09;99246.00;;;25.10
65569;BMP180;52211;50.154;8.682;2023-09-18T04:47:38;99243.00;;;25.10
65569;BMP180;52211;50.154;8.682;2023-09-18T04:50:09;99226.00;;;25.10
65569;BMP180;52211;50.154;8.682;2023-09-18T04:52:41;99231.00;;;25.10
65569;BMP180;52211;50.154;8.682;2023-09-18T04:55:10;99226.00;;;25.10
65569;BMP180;52211;50.154;8.682;2023-09-18T04:57:38;99227.00;;;25.10
65569;BMP180;52211;50.154;8.682;2023-09-18T05:00:05;99238.00;;;25.10
65569;BMP180;52211;50.154;8.682;2023-09-18T05:02:44;99221.00;;;25.10
65569;BMP180;52211;50.154;8.682;2023-09-18T05:05:14;99192.00;;;25.10
65569;BMP180;52211;50.154;8.682;2023-09-18T05:07:47;99194.00;;;25.10
65569;BMP180;52211;50.154;8.682;2023-09-18T05:10:16;99203.00;;;25.10
65569;BMP180;52211;50.154;8.682;2023-09-18T05:12:45;99178.00;;;25.10
65569;BMP180;52211;50.154;8.682;2023-09-18T05:15:12;99176.00;;;25.10
65569;BMP180;52211;50.154;8.682;2023-09-18T05:17:48;99163.00;;;25.10
65569;BMP180;52211;50.154;8.682;2023-09-18T05:20:19;99157.00;;;25.10
65569;BMP180;52211;50.154;8.682;2023-09-18T05:22:46;99163.00;;;25.10
65569;BMP180;52211;50.154;8.682;2023-09-18T05:25:13;99180.00;;;25.10
65569;BMP180;52211;50.154;8.682;2023-09-18T05:27:45;99189.00;;;25.10
65569;BMP180;52211;50.154;8.682;2023-09-18T05:30:18;99191.00;;;25.10
65569;BMP180;52211;50.154;8.682;2023-09-18T05:32:45;99200.00;;;25.10
65569;BMP180;52211;50.154;8.682;2023-09-18T05:35:15;99209.00;;;25.10
65569;BMP180;52211;50.154;8.682;2023-09-18T05:37:43;99220.00;;;25.10
65569;BMP180;52211;50.154;8.682;2023-09-18T05:40:15;99225.00;;;25.10
65569;BMP180;52211;50.154;8.682;2023-09-18T05:42:43;99231.00;;;25.10
65569;BMP180;52211;50.154;8.682;2023-09-18T05:45:14;99243.00;;;25.10
65569;BMP180;52211;50.154;8.682;2023-09-18T05:47:43;99258.00;;;25.10
65569;BMP180;52211;50.154;8.682;2023-09-18T05:50:15;99261.00;;;25.10
65569;BMP180;52211;50.154;8.682;2023-09-18T05:52:47;99259.00;;;25.10
65569;BMP180;52211;50.154;8.682;2023-09-18T05:55:15;99252.00;;;25.10
65569;BMP180;52211;50.154;8.682;2023-09-18T05:57:47;99259.00;;;25.10
65569;BMP180;52211;50.154;8.682;2023-09-18T06:00:18;99264.00;;;25.10
65569;BMP180;52211;50.154;8.682;2023-09-18T06:02:45;99252.00;;;25.10
65569;BMP180;52211;50.154;8.682;2023-09-18T06:05:13;99261.00;;;25.10
65569;BMP180;52211;50.154;8.682;2023-09-18T06:07:45;99266.00;;;25.10
65569;BMP180;52211;50.154;8.682;2023-09-18T06:10:20;99265.00;;;25.10
65569;BMP180;52211;50.154;8.682;2023-09-18T06:12:51;99259.00;;;25.10
65569;BMP180;52211;50.154;8.682;2023-09-18T06:15:18;99236.00;;;25.10
65569;BMP180;52211;50.154;8.682;2023-09-18T06:17:48;99253.00;;;25.10
65569;BMP180;52211;50.154;8.682;2023-09-18T06:20:17;99249.00;;;25.10
65569;BMP180;52211;50.154;8.682;2023-09-18T06:22:44;99246.00;;;25.10
65569;BMP180;52211;50.154;8.682;2023-09-18T06:25:13;99243.00;;;25.10
65569;BMP180;52211;50.154;8.682;2023-09-18T06:27:42;99242.00;;;25.10
65569;BMP180;52211;50.154;8.682;2023-09-18T06:30:09;99247.00;;;25.10
65569;BMP180;52211;50.154;8.682;2023-09-18T06:32:36;99243.00;;;25.10
65569;BMP180;52211;50.154;8.682;2023-09-18T06:35:04;99250.00;;;25.20
65569;BMP180;52211;50.154;8.682;2023-09-18T06:37:34;99232.00;;;25.20
65569;BMP180;52211;50.154;8.682;2023-09-18T06:40:03;99230.00;;;25.20
65569;BMP180;52211;50.154;8.682;2023-09-18T06:42:32;99237.00;;;25.20
65569;BMP180;52211;50.154;8.682;2023-09-18T06:45:06;99241.00;;;25.20
65569;BMP180;52211;50.154;8.682;2023-09-18T06:47:34;99251.00;;;25.20
65569;BMP180;52211;50.154;8.682;2023-09-18T06:50:01;99259.00;;;25.20
65569;BMP180;52211;50.154;8.682;2023-09-18T06:52:30;99266.00;;;25.20
65569;BMP180;52211;50.154;8.682;2023-09-18T06:54:59;99274.00;;;25.20
65569;BMP180;52211;50.154;8.682;2023-09-18T06:57:26;99271.00;;;25.20
65569;BMP180;52211;50.154;8.682;2023-09-18T06:59:54;99276.00;;;25.20
65569;BMP180;52211;50.154;8.682;2023-09-18T07:02:22;99281.00;;;25.30
65569;BMP180;52211;50.154;8.682;2023-09-18T07:04:51;99281.00;;;25.30
65569;BMP180;52211;50.154;8.682;2023-09-18T07:07:21;99290.00;;;25.30
65569;BMP180;52211;50.154;8.682;2023-09-18T07:09:56;99299.00;;;25.30
65569;BMP180;52211;50.154;8.682;2023-09-18T07:12:29;99309.00;;;25.30
65569;BMP180;52211;50.154;8.682;2023-09-18T07:14:56;99299.00;;;25.30
65569;BMP180;52211;50.154;8.682;2023-09-18T07:17:25;99294.00;;;25.30
65569;BMP180;52211;50.154;8.682;2023-09-18T07:19:52;99289.00;;;25.30
65569;BMP180;52211;50.154;8.682;2023-09-18T07:22:19;99287.00;;;25.30
65569;BMP180;52211;50.154;8.682;2023-09-18T07:24:48;99289.00;;;25.30
65569;BMP180;52211;50.154;8.682;2023-09-18T07:27:20;99289.00;;;25.40
65569;BMP180;52211;50.154;8.682;2023-09-18T07:29:47;99289.00;;;25.40
65569;BMP180;52211;50.154;8.682;2023-09-18T07:32:16;99295.00;;;25.40
65569;BMP180;52211;50.154;8.682;2023-09-18T07:35:07;99298.00;;;25.40
65569;BMP180;52211;50.154;8.682;2023-09-18T07:37:37;99299.00;;;25.40
65569;BMP180;52211;50.154;8.682;2023-09-18T07:40:09;99292.00;;;25.40
65569;BMP180;52211;50.154;8.682;2023-09-18T07:42:38;99292.00;;;25.40
65569;BMP180;52211;50.154;8.682;2023-09-18T07:45:06;99281.00;;;25.40
65569;BMP180;52211;50.154;8.682;2023-09-18T07:47:35;99299.00;;;25.40
65569;BMP180;52211;50.154;8.682;2023-09-18T07:50:05;99293.00;;;25.40
65569;BMP180;52211;50.154;8.682;2023-09-18T07:52:38;99319.00;;;25.50
65569;BMP180;52211;50.154;8.682;2023-09-18T07:55:05;99299.00;;;25.50
65569;BMP180;52211;50.154;8.682;2023-09-18T07:57:32;99318.00;;;25.50
65569;BMP180;52211;50.154;8.682;2023-09-18T08:00:04;99320.00;;;25.50
65569;BMP180;52211;50.154;8.682;2023-09-18T08:02:40;99305.00;;;25.60
65569;BMP180;52211;50.154;8.682;2023-09-18T08:05:12;99312.00;;;25.60
65569;BMP180;52211;50.154;8.682;2023-09-18T08:07:42;99321.00;;;25.60
65569;BMP180;52211;50.154;8.682;2023-09-18T08:10:09;99313.00;;;25.70
65569;BMP180;52211;50.154;8.682;2023-09-18T08:12:41;99331.00;;;25.70
65569;BMP180;52211;50.154;8.682;2023-09-18T08:15:11;99339.00;;;25.70
65569;BMP180;52211;50.154;8.682;2023-09-18T08:17:40;99337.00;;;25.70
65569;BMP180;52211;50.154;8.682;2023-09-18T08:20:08;99333.00;;;25.80
65569;BMP180;52211;50.154;8.682;2023-09-18T08:22:42;99329.00;;;25.80
65569;BMP180;52211;50.154;8.682;2023-09-18T08:25:11;99338.00;;;25.90
65569;BMP180;52211;50.154;8.682;2023-09-18T08:27:40;99331.00;;;25.90
65569;BMP180;52211;50.154;8.682;2023-09-18T08:30:13;99327.00;;;25.90
65569;BMP180;52211;50.154;8.682;2023-09-18T08:32:44;99328.00;;;26.00
65569;BMP180;52211;50.154;8.682;2023-09-18T08:35:14;99327.00;;;26.00
65569;BMP180;52211;50.154;8.682;2023-09-18T08:37:43;99326.00;;;26.10
65569;BMP180;52211;50.154;8.682;2023-09-18T08:40:17;99330.00;;;26.10
65569;BMP180;52211;50.154;8.682;2023-09-18T08:42:47;99313.00;;;26.10
65569;BMP180;52211;50.154;8.682;2023-09-18T08:45:55;99322.00;;;26.10
65569;BMP180;52211;50.154;8.682;2023-09-18T08:48:25;99319.00;;;26.20
65569;BMP180;52211;50.154;8.682;2023-09-18T08:50:56;99321.00;;;26.30
65569;BMP180;52211;50.154;8.682;2023-09-18T08:53:25;99321.00;;;26.40
65569;BMP180;52211;50.154;8.682;2023-09-18T08:55:53;99325.00;;;26.40
65569;BMP180;52211;50.154;8.682;2023-09-18T08:58:27;99321.00;;;26.40
65569;BMP180;52211;50.154;8.682;2023-09-18T09:00:54;99315.00;;;26.40
65569;BMP180;52211;50.154;8.682;2023-09-18T09:03:31;99310.00;;;26.50
65569;BMP180;52211;50.154;8.682;2023-09-18T09:05:58;99290.00;;;26.50
65569;BMP180;52211;50.154;8.682;2023-09-18T09:08:30;99284.00;;;26.50
65569;BMP180;52211;50.154;8.682;2023-09-18T09:10:59;99288.00;;;26.60
65569;BMP180;52211;50.154;8.682;2023-09-18T09:13:29;99293.00;;;26.60
65569;BMP180;52211;50.154;8.682;2023-09-18T09:16:19;99296.00;;;26.60
65569;BMP180;52211;50.154;8.682;2023-09-18T09:18:53;99290.00;;;26.60
65569;BMP180;52211;50.154;8.682;2023-09-18T09:21:20;99290.00;;;26.60
65569;BMP180;52211;50.154;8.682;2023-09-18T09:23:52;99300.00;;;26.50
65569;BMP180;52211;50.154;8.682;2023-09-18T09:26:22;99310.00;;;26.50
65569;BMP180;52211;50.154;8.682;2023-09-18T09:28:50;99308.00;;;26.50
65569;BMP180;52211;50.154;8.682;2023-09-18T09:31:29;99306.00;;;26.50
65569;BMP180;52211;50.154;8.682;2023-09-18T09:33:58;99311.00;;;26.50
65569;BMP180;52211;50.154;8.682;2023-09-18T09:36:25;99306.00;;;26.50
65569;BMP180;52211;50.154;8.682;2023-09-18T09:38:58;99294.00;;;26.50
65569;BMP180;52211;50.154;8.682;2023-09-18T09:41:27;99309.00;;;26.50
65569;BMP180;52211;50.154;8.682;2023-09-18T09:44:02;99320.00;;;26.50
65569;BMP180;52211;50.154;8.682;2023-09-18T09:46:31;99321.00;;;26.50
65569;BMP180;52211;50.154;8.682;2023-09-18T09:49:05;99335.00;;;26.50
65569;BMP180;52211;50.154;8.682;2023-09-18T09:51:37;99330.00;;;26.50
65569;BMP180;52211;50.154;8.682;2023-09-18T09:54:05;99336.00;;;26.50
65569;BMP180;52211;50.154;8.682;2023-09-18T09:56:49;99332.00;;;26.50
65569;BMP180;52211;50.154;8.682;2023-09-18T09:59:20;99321.00;;;26.50
65569;BMP180;52211;50.154;8.682;2023-09-18T10:01:50;99326.00;;;26.50
65569;BMP180;52211;50.154;8.682;2023-09-18T10:04:21;99344.00;;;26.50
65569;BMP180;52211;50.154;8.682;2023-09-18T10:07:01;99354.00;;;26.50
65569;BMP180;52211;50.154;8.682;2023-09-18T10:09:35;99351.00;;;26.50
65569;BMP180;52211;50.154;8.682;2023-09-18T10:12:12;99347.00;;;26.40
65569;BMP180;52211;50.154;8.682;2023-09-18T10:14:47;99331.00;;;26.40
65569;BMP180;52211;50.154;8.682;2023-09-18T10:17:28;99351.00;;;26.40
65569;BMP180;52211;50.154;8.682;2023-09-18T10:20:08;99365.00;;;26.40
65569;BMP180;52211;50.154;8.682;2023-09-18T10:22:43;99364.00;;;26.40
65569;BMP180;52211;50.154;8.682;2023-09-18T10:25:21;99365.00;;;26.40
65569;BMP180;52211;50.154;8.682;2023-09-18T10:27:52;99382.00;;;26.50
65569;BMP180;52211;50.154;8.682;2023-09-18T10:30:24;99370.00;;;26.50
65569;BMP180;52211;50.154;8.682;2023-09-18T10:32:53;99365.00;;;26.50
65569;BMP180;52211;50.154;8.682;2023-09-18T10:35:22;99354.00;;;26.50
65569;BMP180;52211;50.154;8.682;2023-09-18T10:37:49;99353.00;;;26.60
65569;BMP180;52211;50.154;8.682;2023-09-18T10:40:24;99349.00;;;26.60
65569;BMP180;52211;50.154;8.682;2023-09-18T10:42:57;99366.00;;;26.60
65569;BMP180;52211;50.154;8.682;2023-09-18T10:45:25;99352.00;;;26.60
65569;BMP180;52211;50.154;8.682;2023-09-18T10:47:58;99343.00;;;26.60
65569;BMP180;52211;50.154;8.682;2023-09-18T10:50:29;99350.00;;;26.60
65569;BMP180;52211;50.154;8.682;2023-09-18T10:53:02;99343.00;;;26.60
65569;BMP180;52211;50.154;8.682;2023-09-18T10:55:34;99325.00;;;26.60
65569;BMP180;52211;50.154;8.682;2023-09-18T10:58:05;99345.00;;;26.60
65569;BMP180;52211;50.154;8.682;2023-09-18T11:00:38;99348.00;;;26.70
65569;BMP180;52211;50.154;8.682;2023-09-18T11:03:17;99338.00;;;26.70
65569;BMP180;52211;50.154;8.682;2023-09-18T11:05:48;99346.00;;;26.80
65569;BMP180;52211;50.154;8.682;2023-09-18T11:08:35;99344.00;;;26.90
65569;BMP180;52211;50.154;8.682;2023-09-18T11:11:17;99341.00;;;26.90
65569;BMP180;52211;50.154;8.682;2023-09-18T11:13:48;99352.00;;;27.00
65569;BMP180;52211;50.154;8.682;2023-09-18T11:21:31;99366.00;;;27.00
65569;BMP180;52211;50.154;8.682;2023-09-18T11:26:40;99361.00;;;27.10
65569;BMP180;52211;50.154;8.682;2023-09-18T11:29:23;99359.00;;;27.00
65569;BMP180;52211;50.154;8.682;2023-09-18T11:31:55;99373.00;;;27.10
65569;BMP180;52211;50.154;8.682;2023-09-18T11:34:32;99371.00;;;27.10
65569;BMP180;52211;50.154;8.682;2023-09-18T11:37:19;99373.00;;;27.00
65569;BMP180;52211;50.154;8.682;2023-09-18T11:39:47;99381.00;;;27.10
65569;BMP180;52211;50.154;8.682;2023-09-18T11:42:20;99395.00;;;27.10
65569;BMP180;52211;50.154;8.682;2023-09-18T11:44:54;99372.00;;;27.10
65569;BMP180;52211;50.154;8.682;2023-09-18T11:47:25;99368.00;;;27.10
65569;BMP180;52211;50.154;8.682;2023-09-18T11:49:58;99358.00;;;27.10
65569;BMP180;52211;50.154;8.682;2023-09-18T11:52:31;99354.00;;;27.10
65569;BMP180;52211;50.154;8.682;2023-09-18T11:55:00;99359.00;;;27.20
65569;BMP180;52211;50.154;8.682;2023-09-18T11:57:27;99369.00;;;27.20
65569;BMP180;52211;50.154;8.682;2023-09-18T11:59:56;99364.00;;;27.20
65569;BMP180;52211;50.154;8.682;2023-09-18T12:02:29;99367.00;;;27.30
65569;BMP180;52211;50.154;8.682;2023-09-18T12:05:21;99373.00;;;27.30
65569;BMP180;52211;50.154;8.682;2023-09-18T12:07:52;99368.00;;;27.40
65569;BMP180;52211;50.154;8.682;2023-09-18T12:10:23;99363.00;;;27.40
65569;BMP180;52211;50.154;8.682;2023-09-18T12:12:54;99370.00;;;27.40
65569;BMP180;52211;50.154;8.682;2023-09-18T12:15:21;99363.00;;;27.40
65569;BMP180;52211;50.154;8.682;2023-09-18T12:18:06;99364.00;;;27.40
65569;BMP180;52211;50.154;8.682;2023-09-18T12:20:33;99366.00;;;27.50
65569;BMP180;52211;50.154;8.682;2023-09-18T12:23:10;99364.00;;;27.50
65569;BMP180;52211;50.154;8.682;2023-09-18T12:25:40;99359.00;;;27.50
65569;BMP180;52211;50.154;8.682;2023-09-18T12:28:13;99364.00;;;27.50
65569;BMP180;52211;50.154;8.682;2023-09-18T12:30:46;99356.00;;;27.50
65569;BMP180;52211;50.154;8.682;2023-09-18T12:33:19;99358.00;;;27.60
65569;BMP180;52211;50.154;8.682;2023-09-18T12:35:47;99353.00;;;27.60
65569;BMP180;52211;50.154;8.682;2023-09-18T12:38:20;99348.00;;;27.70
65569;BMP180;52211;50.154;8.682;2023-09-18T12:40:52;99339.00;;;27.70
65569;BMP180;52211;50.154;8.682;2023-09-18T12:43:24;99349.00;;;27.90
65569;BMP180;52211;50.154;8.682;2023-09-18T12:45:56;99331.00;;;28.00
65569;BMP180;52211;50.154;8.682;2023-09-18T12:48:28;99331.00;;;28.10
65569;BMP180;52211;50.154;8.682;2023-09-18T12:51:02;99328.00;;;28.30
65569;BMP180;52211;50.154;8.682;2023-09-18T12:53:31;99330.00;;;28.50
65569;BMP180;52211;50.154;8.682;2023-09-18T12:56:14;99335.00;;;28.70
65569;BMP180;52211;50.154;8.682;2023-09-18T12:58:43;99338.00;;;28.90
65569;BMP180;52211;50.154;8.682;2023-09-18T13:01:31;99335.00;;;29.20
65569;BMP180;52211;50.154;8.682;2023-09-18T13:04:01;99335.00;;;29.50
65569;BMP180;52211;50.154;8.682;2023-09-18T13:06:37;99339.00;;;29.70
65569;BMP180;52211;50.154;8.682;2023-09-18T13:09:19;99337.00;;;29.90
65569;BMP180;52211;50.154;8.682;2023-09-18T13:11:57;99341.00;;;30.10
65569;BMP180;52211;50.154;8.682;2023-09-18T13:14:29;99346.00;;;30.30
65569;BMP180;52211;50.154;8.682;2023-09-18T13:17:02;99346.00;;;30.40
65569;BMP180;52211;50.154;8.682;2023-09-18T13:19:34;99337.00;;;30.40
65569;BMP180;52211;50.154;8.682;2023-09-18T13:22:04;99336.00;;;30.40
65569;BMP180;52211;50.154;8.682;2023-09-18T13:24:34;99341.00;;;30.30
65569;BMP180;52211;50.154;8.682;2023-09-18T13:27:01;99337.00;;;30.30
65569;BMP180;52211;50.154;8.682;2023-09-18T13:29:30;99337.00;;;30.20
65569;BMP180;52211;50.154;8.682;2023-09-18T13:32:00;99332.00;;;30.10
65569;BMP180;52211;50.154;8.682;2023-09-18T13:34:27;99327.00;;;30.00
65569;BMP180;52211;50.154;8.682;2023-09-18T13:36:56;99320.00;;;30.00
65569;BMP180;52211;50.154;8.682;2023-09-18T13:39:23;99320.00;;;30.10
65569;BMP180;52211;50.154;8.682;2023-09-18T13:41:53;99326.00;;;30.10
65569;BMP180;52211;50.154;8.682;2023-09-18T13:44:20;99321.00;;;30.10
65569;BMP180;52211;50.154;8.682;2023-09-18T13:46:48;99330.00;;;30.10
65569;BMP180;52211;50.154;8.682;2023-09-18T13:49:17;99332.00;;;30.00
65569;BMP180;52211;50.154;8.682;2023-09-18T13:51:47;99338.00;;;30.00
65569;BMP180;52211;50.154;8.682;2023-09-18T13:54:13;99334.00;;;29.90
65569;BMP180;52211;50.154;8.682;2023-09-18T13:56:41;99327.00;;;29.80
65569;BMP180;52211;50.154;8.682;2023-09-18T13:59:10;99327.00;;;29.70
65569;BMP180;52211;50.154;8.682;2023-09-18T14:01:44;99324.00;;;29.60
65569;BMP180;52211;50.154;8.682;2023-09-18T14:04:13;99326.00;;;29.60
65569;BMP180;52211;50.154;8.682;2023-09-18T14:06:40;99319.00;;;29.50
65569;BMP180;52211;50.154;8.682;2023-09-18T14:09:09;99315.00;;;29.40
65569;BMP180;52211;50.154;8.682;2023-09-18T14:11:37;99313.00;;;29.40
65569;BMP180;52211;50.154;8.682;2023-09-18T14:14:05;99315.00;;;29.40
65569;BMP180;52211;50.154;8.682;2023-09-18T14:16:35;99314.00;;;29.40
65569;BMP180;52211;50.154;8.682;2023-09-18T14:19:06;99317.00;;;29.40
65569;BMP180;52211;50.154;8.682;2023-09-18T14:21:40;99304.00;;;29.50
65569;BMP180;52211;50.154;8.682;2023-09-18T14:24:07;99308.00;;;29.50
65569;BMP180;52211;50.154;8.682;2023-09-18T14:26:37;99299.00;;;29.50
65569;BMP180;52211;50.154;8.682;2023-09-18T14:29:08;99288.00;;;29.60
65569;BMP180;52211;50.154;8.682;2023-09-18T14:31:41;99287.00;;;29.70
65569;BMP180;52211;50.154;8.682;2023-09-18T14:34:08;99276.00;;;29.80
65569;BMP180;52211;50.154;8.682;2023-09-18T14:36:38;99266.00;;;30.00
65569;BMP180;52211;50.154;8.682;2023-09-18T14:39:06;99259.00;;;30.20
65569;BMP180;52211;50.154;8.682;2023-09-18T14:41:37;99253.00;;;30.40